Wednesday, April 25, 2018, 12:52 AM GMT
Back to Local

CWIT, Saint Clothilde Automated Reporting Station

Location: , , Canada Lat: 45.167
Local Time: 12:52 AM GMT ( 0:52 GMT) Lon: -73.683
Time Zone: GMT Elev: 170 ft

Show me the last for .
Show Coded

Time T Td Feel RH Dir Speed Gust Alt SLP Vis Weather Sky Remarks
2018-04-25 00:00 59 42 - 52 130° 1 - - 30.07 0 None
2018-04-24 23:00 67 31 - 26 290° 3 - - 30.07 0 None
2018-04-24 22:00 70 31 - 24 180° 3 - - 30.07 0 None
2018-04-24 21:00 71 34 - 25 150° 10 - - 30.09 0 None
2018-04-24 20:00 70 34 - 25 160° 12 - - 30.10 0 None
2018-04-24 19:00 73 28 - 19 270° 5 - - 30.12 0 None
2018-04-24 18:00 71 35 - 26 230° 7 - - 30.14 0 None
2018-04-24 17:00 70 38 - 30 240° 6 - - 30.16 0 None
2018-04-24 16:00 69 38 - 32 260° 10 - - 30.19 0 None
2018-04-24 15:00 67 38 - 33 240° 9 17 - 30.22 0 None
2018-04-24 14:00 65 37 - 35 210° 10 - - 30.22 0 None
2018-04-24 13:00 58 31 - 36 160° 6 - - 30.22 0 None
2018-04-24 12:00 49 32 - 50 120° 2 - - 30.23 0 None
2018-04-24 11:00 38 29 - 69 - Calm - - 30.22 0 None
2018-04-24 10:00 35 27 - 74 - Calm - - 30.21 0 None
2018-04-24 09:00 36 26 - 66 - Calm - - 30.22 0 None
2018-04-24 08:00 35 27 - 72 50° 1 - - 30.22 0 None
2018-04-24 07:00 40 26 - 56 - Calm - - 30.21 0 None
2018-04-24 06:00 36 30 - 79 140° 1 - - 30.22 0 None
2018-04-24 05:00 34 30 - 87 - Calm - - 30.24 0 None
2018-04-24 04:00 35 31 - 86 - Calm - - 30.24 0 None
2018-04-24 03:00 37 32 - 82 - Calm - - 30.25 0 None
2018-04-24 02:00 40 30 - 66 - Calm - - 30.26 0 None
2018-04-24 01:00 44 28 - 53 - Calm - - 30.27 0 None

Support USWX by starting your Amazon purchase here.